Grimsby

*Note: All times are displayed in the local standard time of the station location.
**Rain - Equipment is designed to accurately record liquid precipitation; under conditions when precipitation is not in liquid form, the data displayed may not properly reflect rainfall values.

Date Max Temp
(°C)
Min Temp
(°C)
Avg Temp
(°C)
Rain (mm) Avg RH (%)
Sun, Jul 14, 2019 27.8 14.4 21.8 0.0 77.3
Sat, Jul 13, 2019 28.4 12.8 21.8 0.0 88.7
Fri, Jul 12, 2019 21.6 14.1 18.2 0.0 93.3
Thu, Jul 11, 2019 28.8 17.6 23.6 0.2 91.1
Wed, Jul 10, 2019 27.2 10.8 20.3 0.0 89.9
Tue, Jul 09, 2019 25.7 9.3 18.1 0.0 82.8
Mon, Jul 08, 2019 24.5 11.0 17.6 0.0 84.8
DateTime Avg Temp (°C) Rain (mm) RH (%)
Mon, Jul 15, 2019 13:00 24.8 0.0 79.1
Mon, Jul 15, 2019 12:00 23.9 0.0 81.2
Mon, Jul 15, 2019 11:00 22.9 0.0 84.0
Mon, Jul 15, 2019 10:00 22.2 0.0 82.5
Mon, Jul 15, 2019 09:00 20.8 0.0 87.6
Mon, Jul 15, 2019 08:00 17.9 0.0 97.0
Mon, Jul 15, 2019 07:00 12.8 0.0 99.9
Mon, Jul 15, 2019 06:00 11.8 0.0 99.9
Mon, Jul 15, 2019 05:00 14.1 0.0 99.9
Mon, Jul 15, 2019 04:00 15.6 0.0 99.9
Mon, Jul 15, 2019 03:00 16.9 0.0 99.9
Mon, Jul 15, 2019 02:00 17.6 0.0 99.9
Mon, Jul 15, 2019 01:00 18.5 0.0 99.9
Mon, Jul 15, 2019 00:00 17.4 0.0 99.9
Sun, Jul 14, 2019 23:00 17.0 0.0 99.9
Sun, Jul 14, 2019 22:00 20.2 0.0 96.3
Sun, Jul 14, 2019 21:00 23.4 0.0 82.6
Sun, Jul 14, 2019 20:00 26.3 0.0 65.5
Sun, Jul 14, 2019 19:00 27.5 0.0 57.5
Sun, Jul 14, 2019 18:00 26.3 0.0 62.7
Sun, Jul 14, 2019 17:00 26.1 0.0 64.8
Sun, Jul 14, 2019 16:00 26.4 0.0 64.5
Sun, Jul 14, 2019 15:00 26.9 0.0 62.0
Sun, Jul 14, 2019 14:00 26.5 0.0 64.0
Sun, Jul 14, 2019 13:00 25.7 0.0 67.1
Sun, Jul 14, 2019 12:00 24.4 0.0 70.2
Sun, Jul 14, 2019 11:00 22.8 0.0 77.4
Sun, Jul 14, 2019 10:00 21.5 0.0 81.4
Sun, Jul 14, 2019 09:00 20.3 0.0 84.1
Sun, Jul 14, 2019 08:00 18.6 0.0 87.0
Sun, Jul 14, 2019 07:00 15.5 0.0 91.6
Sun, Jul 14, 2019 06:00 14.8 0.0 90.3
Sun, Jul 14, 2019 05:00 16.4 0.0 82.1
Sun, Jul 14, 2019 04:00 18.0 0.0 75.1
Sun, Jul 14, 2019 03:00 19.3 0.0 71.5
Sun, Jul 14, 2019 02:00 20.3 0.0 74.1
Sun, Jul 14, 2019 01:00 21.8 0.0 82.9
Sun, Jul 14, 2019 00:00 22.6 0.0 94.0
Sat, Jul 13, 2019 23:00 22.6 0.0 98.1
Sat, Jul 13, 2019 22:00 23.5 0.0 91.8
Sat, Jul 13, 2019 21:00 24.7 0.0 84.5
Sat, Jul 13, 2019 20:00 25.8 0.0 80.9
Sat, Jul 13, 2019 19:00 27.9 0.0 73.7
Sat, Jul 13, 2019 18:00 27.8 0.0 74.0
Sat, Jul 13, 2019 17:00 26.5 0.0 76.0
Sat, Jul 13, 2019 16:00 27.3 0.0 70.2
Sat, Jul 13, 2019 15:00 28.0 0.0 73.3
Sat, Jul 13, 2019 14:00 27.4 0.0 77.9


asterix Register now to access more data! asterix